createdAt,value
2022-08-17T00:00:43.514Z,14.24
2022-08-17T00:03:14.123Z,14.27
2022-08-17T00:06:12.285Z,14.28
2022-08-17T00:08:43.321Z,14.31
2022-08-17T00:11:26.457Z,14.29
2022-08-17T00:13:57.529Z,14.29
2022-08-17T00:16:55.893Z,14.26
2022-08-17T00:19:23.232Z,14.23
2022-08-17T00:22:31.733Z,14.23
2022-08-17T00:24:40.815Z,14.20
2022-08-17T00:27:08.543Z,14.19
2022-08-17T00:29:36.119Z,14.20
2022-08-17T00:33:13.692Z,14.26
2022-08-17T00:34:51.787Z,14.29
2022-08-17T00:37:19.345Z,14.26
2022-08-17T00:39:46.929Z,14.26
2022-08-17T00:42:18.029Z,14.29
2022-08-17T00:44:46.153Z,14.29
2022-08-17T00:47:13.798Z,14.30
2022-08-17T00:49:41.465Z,14.23
2022-08-17T00:52:16.758Z,14.20
2022-08-17T00:54:49.353Z,14.13
2022-08-17T00:57:36.755Z,14.06
2022-08-17T01:00:13.543Z,14.03
2022-08-17T01:02:44.377Z,13.98
2022-08-17T01:05:23.793Z,13.92
2022-08-17T01:07:54.366Z,13.90
2022-08-17T01:11:00.004Z,13.87
2022-08-17T01:13:16.626Z,13.84
2022-08-17T01:15:50.640Z,13.80
2022-08-17T01:18:18.670Z,13.79
2022-08-17T01:20:53.747Z,13.78
2022-08-17T01:23:24.289Z,13.78
2022-08-17T01:25:55.635Z,13.82
2022-08-17T01:28:53.426Z,13.80
2022-08-17T01:31:15.218Z,13.78
2022-08-17T01:33:42.804Z,13.77
2022-08-17T01:36:10.453Z,13.73
2022-08-17T01:38:38.706Z,13.69
2022-08-17T01:41:13.232Z,13.64
2022-08-17T01:43:54.036Z,13.63
2022-08-17T01:46:27.671Z,13.68
2022-08-17T01:48:56.478Z,13.68
2022-08-17T01:51:29.443Z,13.66
2022-08-17T01:54:01.192Z,13.64
2022-08-17T01:56:30.438Z,13.61
2022-08-17T01:58:58.516Z,13.57
2022-08-17T02:01:30.854Z,13.56
2022-08-17T02:04:01.356Z,13.55
2022-08-17T02:06:52.830Z,13.53
2022-08-17T02:09:23.426Z,13.55
2022-08-17T02:11:56.320Z,13.57
2022-08-17T02:14:25.010Z,13.59
2022-08-17T02:16:53.788Z,13.57
2022-08-17T02:19:22.083Z,13.57
2022-08-17T02:21:51.629Z,13.58
2022-08-17T02:24:59.360Z,13.55
2022-08-17T02:27:11.191Z,13.52
2022-08-17T02:29:38.779Z,13.49
2022-08-17T02:32:06.622Z,13.46
2022-08-17T02:34:34.174Z,13.44
2022-08-17T02:37:01.758Z,13.46
2022-08-17T02:39:29.267Z,13.45
2022-08-17T02:42:01.640Z,13.49
2022-08-17T02:44:39.975Z,13.47
2022-08-17T02:47:09.995Z,13.44
2022-08-17T02:49:37.983Z,13.42
2022-08-17T02:52:07.733Z,13.40
2022-08-17T02:54:40.591Z,13.40
2022-08-17T02:57:10.635Z,13.41
2022-08-17T02:59:39.665Z,13.43
2022-08-17T03:02:10.108Z,13.45
2022-08-17T03:04:38.158Z,13.45
2022-08-17T03:07:06.764Z,13.48
2022-08-17T03:09:34.579Z,13.49
2022-08-17T03:12:07.741Z,13.48
2022-08-17T03:14:41.727Z,13.47
2022-08-17T03:17:10.727Z,13.45
2022-08-17T03:19:41.560Z,13.42
2022-08-17T03:22:36.495Z,13.39
2022-08-17T03:24:58.834Z,13.36
2022-08-17T03:27:26.430Z,13.32
2022-08-17T03:29:54.452Z,13.26
2022-08-17T03:32:21.987Z,13.24
2022-08-17T03:34:49.607Z,13.21
2022-08-17T03:37:17.312Z,13.16
2022-08-17T03:39:44.934Z,13.09
2022-08-17T03:42:32.071Z,13.06
2022-08-17T03:45:02.234Z,13.06
2022-08-17T03:47:49.054Z,13.04
2022-08-17T03:50:36.652Z,13.03
2022-08-17T03:53:30.260Z,13.04
2022-08-17T03:56:21.540Z,13.04
2022-08-17T03:58:50.215Z,13.02
2022-08-17T04:01:18.172Z,13.01
2022-08-17T04:03:45.979Z,13.02
2022-08-17T04:06:15.270Z,13.06
2022-08-17T04:08:42.775Z,13.07
2022-08-17T04:11:10.873Z,13.06
2022-08-17T04:13:38.491Z,13.03
2022-08-17T04:16:06.180Z,13.00
2022-08-17T04:18:33.723Z,13.00
2022-08-17T04:21:01.480Z,13.01
2022-08-17T04:23:33.708Z,13.04
2022-08-17T04:26:01.608Z,13.05
2022-08-17T04:28:30.091Z,13.08
2022-08-17T04:30:57.738Z,13.10
2022-08-17T04:33:27.405Z,13.14
2022-08-17T04:36:01.198Z,13.12
2022-08-17T04:38:31.957Z,13.11
2022-08-17T04:41:20.714Z,13.11
2022-08-17T04:43:49.536Z,13.07
2022-08-17T04:46:19.407Z,13.06
2022-08-17T04:48:50.877Z,13.03
2022-08-17T04:51:27.222Z,13.04
2022-08-17T04:53:58.420Z,13.07
2022-08-17T04:56:27.733Z,13.05
2022-08-17T04:58:58.719Z,13.01
2022-08-17T05:01:29.945Z,13.02
2022-08-17T05:04:00.746Z,13.02
2022-08-17T05:06:49.532Z,13.01
2022-08-17T05:09:18.385Z,13.01
2022-08-17T05:11:46.793Z,13.00
2022-08-17T05:14:14.954Z,12.98
2022-08-17T05:16:42.521Z,13.00
2022-08-17T05:19:10.107Z,13.01
2022-08-17T05:21:37.693Z,13.02
2022-08-17T05:24:13.519Z,13.05
2022-08-17T05:26:53.145Z,13.07
2022-08-17T05:29:22.861Z,13.09
2022-08-17T05:32:38.392Z,13.09
2022-08-17T05:35:02.231Z,13.06
2022-08-17T05:37:29.763Z,13.10
2022-08-17T05:39:57.513Z,13.12
2022-08-17T05:42:25.141Z,13.15
2022-08-17T05:44:52.679Z,13.12
2022-08-17T05:47:23.627Z,13.11
2022-08-17T05:49:51.465Z,13.08
2022-08-17T05:52:50.363Z,13.07
2022-08-17T05:55:31.957Z,13.07
2022-08-17T05:58:46.369Z,13.09
2022-08-17T06:01:33.581Z,13.11
2022-08-17T06:04:16.741Z,13.20
2022-08-17T06:07:01.869Z,13.21
2022-08-17T06:09:46.262Z,13.24
2022-08-17T06:12:29.125Z,13.27
2022-08-17T06:15:10.754Z,13.27
2022-08-17T06:17:39.912Z,13.29
2022-08-17T06:20:15.561Z,13.27
2022-08-17T06:22:53.856Z,13.24
2022-08-17T06:25:31.998Z,13.25
2022-08-17T06:28:08.684Z,13.31
2022-08-17T06:31:00.154Z,13.38
2022-08-17T06:33:35.331Z,13.45
2022-08-17T06:36:09.737Z,13.45
2022-08-17T06:39:09.332Z,13.38
2022-08-17T06:42:07.334Z,13.33
2022-08-17T06:44:51.153Z,13.35
2022-08-17T06:47:37.798Z,13.30
2022-08-17T06:50:17.825Z,13.38
2022-08-17T06:52:54.132Z,13.38
2022-08-17T06:55:34.459Z,13.40
2022-08-17T06:58:15.657Z,13.40
2022-08-17T07:00:47.349Z,13.42
2022-08-17T07:03:29.383Z,13.46
2022-08-17T07:06:18.502Z,13.53
2022-08-17T07:08:49.907Z,13.59
2022-08-17T07:11:26.165Z,13.57
2022-08-17T07:14:18.392Z,13.52
2022-08-17T07:16:50.544Z,13.55
2022-08-17T07:19:22.674Z,13.54
2022-08-17T07:22:14.404Z,13.52
2022-08-17T07:24:52.878Z,13.51
2022-08-17T07:27:27.611Z,13.50
2022-08-17T07:30:06.790Z,13.53
2022-08-17T07:32:45.549Z,13.56
2022-08-17T07:35:22.199Z,13.55
2022-08-17T07:38:24.294Z,13.62
2022-08-17T07:41:03.250Z,13.79
2022-08-17T07:43:40.309Z,13.88
2022-08-17T07:46:38.304Z,14.01
2022-08-17T07:49:09.013Z,14.30
2022-08-17T07:51:44.283Z,14.58
2022-08-17T07:54:33.672Z,14.79
2022-08-17T07:57:29.811Z,15.04
2022-08-17T08:00:01.508Z,15.27
2022-08-17T08:02:40.319Z,15.51
2022-08-17T08:05:31.709Z,15.54
2022-08-17T08:08:25.365Z,15.72
2022-08-17T08:11:30.175Z,15.96
2022-08-17T08:14:20.680Z,16.38
2022-08-17T08:17:05.104Z,16.56
2022-08-17T08:19:33.747Z,16.69
2022-08-17T08:22:22.134Z,16.81
2022-08-17T08:25:29.992Z,16.99
2022-08-17T08:28:20.914Z,17.14
2022-08-17T08:30:57.585Z,17.27
2022-08-17T08:33:39.882Z,17.28
2022-08-17T08:36:13.644Z,17.38
2022-08-17T08:39:07.479Z,17.50
2022-08-17T08:42:07.779Z,17.70
2022-08-17T08:44:59.926Z,18.01
2022-08-17T08:47:57.445Z,18.37
2022-08-17T08:50:38.709Z,18.56
2022-08-17T08:53:09.288Z,18.78
2022-08-17T08:55:52.333Z,19.00
2022-08-17T08:58:41.273Z,19.12
2022-08-17T09:01:20.909Z,19.08
2022-08-17T09:03:54.055Z,19.33
2022-08-17T09:06:28.682Z,19.94
2022-08-17T09:09:17.021Z,20.70
2022-08-17T09:12:02.378Z,20.97
2022-08-17T09:14:45.382Z,20.97
2022-08-17T09:17:20.521Z,21.14
2022-08-17T09:20:11.277Z,21.28
2022-08-17T09:22:51.598Z,21.48
2022-08-17T09:25:28.032Z,21.50
2022-08-17T09:28:00.510Z,21.34
2022-08-17T09:30:45.629Z,21.19
2022-08-17T09:33:22.909Z,21.39
2022-08-17T09:36:00.205Z,22.21
2022-08-17T09:38:40.582Z,22.50
2022-08-17T09:41:22.243Z,22.45
2022-08-17T09:44:01.512Z,22.52
2022-08-17T09:46:36.008Z,22.69
2022-08-17T09:49:15.164Z,22.91
2022-08-17T09:51:54.429Z,22.90
2022-08-17T09:54:39.210Z,22.98
2022-08-17T09:57:30.392Z,23.13
2022-08-17T10:00:10.158Z,23.74
2022-08-17T10:02:53.655Z,23.91
2022-08-17T10:05:39.958Z,24.05
2022-08-17T10:08:10.711Z,24.21
2022-08-17T10:11:07.397Z,24.16
2022-08-17T10:13:40.253Z,24.20
2022-08-17T10:16:38.881Z,24.18
2022-08-17T10:19:06.568Z,23.95
2022-08-17T10:22:00.952Z,23.83
2022-08-17T10:25:23.205Z,23.66
2022-08-17T10:27:57.839Z,23.46
2022-08-17T10:30:33.337Z,23.46
2022-08-17T10:33:05.348Z,23.44
2022-08-17T10:35:45.210Z,23.15
2022-08-17T10:38:28.659Z,22.99
2022-08-17T10:40:57.343Z,23.12
2022-08-17T10:43:35.802Z,23.45
2022-08-17T10:46:31.864Z,23.43
2022-08-17T10:49:18.076Z,23.39
2022-08-17T10:51:48.361Z,23.65
2022-08-17T10:57:33.894Z,25.15
2022-08-17T11:00:18.427Z,25.69
2022-08-17T11:02:52.384Z,26.07
2022-08-17T11:05:58.937Z,26.15
2022-08-17T11:09:01.167Z,26.24
2022-08-17T11:12:07.302Z,26.20
2022-08-17T11:15:03.557Z,26.52
2022-08-17T11:17:53.019Z,26.94
2022-08-17T11:21:20.069Z,27.30
2022-08-17T11:24:31.017Z,27.83
2022-08-17T11:27:00.772Z,28.43
2022-08-17T11:30:05.234Z,28.69
2022-08-17T11:32:47.457Z,29.02
2022-08-17T11:35:21.792Z,29.26
2022-08-17T11:38:16.210Z,29.42
2022-08-17T11:41:14.593Z,29.58
2022-08-17T11:44:12.871Z,29.65
2022-08-17T11:47:16.842Z,29.62
2022-08-17T11:50:23.454Z,29.46
2022-08-17T11:52:53.463Z,29.22
2022-08-17T11:55:37.538Z,29.45
2022-08-17T11:58:42.702Z,29.41
2022-08-17T12:01:23.682Z,29.40
2022-08-17T12:03:59.423Z,29.22
2022-08-17T12:06:29.658Z,29.05
2022-08-17T12:09:19.738Z,29.08
2022-08-17T12:12:12.037Z,29.03
2022-08-17T12:17:50.268Z,29.60
2022-08-17T12:20:37.276Z,29.94
2022-08-17T12:23:32.108Z,30.17
2022-08-17T12:26:24.955Z,30.42
2022-08-17T12:28:58.710Z,30.51
2022-08-17T12:31:49.182Z,30.30
2022-08-17T12:34:23.664Z,30.34
2022-08-17T12:36:54.482Z,30.50
2022-08-17T12:39:25.191Z,30.58
2022-08-17T12:42:01.913Z,30.68
2022-08-17T12:44:34.656Z,30.69
2022-08-17T12:47:10.768Z,30.45
2022-08-17T12:49:41.626Z,30.15
2022-08-17T12:52:18.543Z,29.82
2022-08-17T12:55:07.435Z,29.58
2022-08-17T12:57:49.234Z,29.53
2022-08-17T13:00:38.263Z,29.47
2022-08-17T13:03:09.733Z,29.37
2022-08-17T13:05:53.855Z,29.60
2022-08-17T13:08:22.712Z,29.66
2022-08-17T13:11:02.615Z,29.25
2022-08-17T13:13:34.128Z,29.01
2022-08-17T13:16:06.144Z,28.86
2022-08-17T13:18:44.213Z,28.58
2022-08-17T13:21:23.730Z,28.60
2022-08-17T13:24:17.309Z,28.32
2022-08-17T13:26:47.120Z,27.75
2022-08-17T13:29:39.001Z,27.12
2022-08-17T13:32:13.457Z,26.63
2022-08-17T13:35:15.444Z,26.29
2022-08-17T13:38:01.389Z,25.84
2022-08-17T13:40:32.391Z,25.54
2022-08-17T13:43:00.032Z,25.31
2022-08-17T13:45:35.037Z,25.05
2022-08-17T13:48:08.887Z,24.64
2022-08-17T13:51:07.036Z,24.27
2022-08-17T13:53:37.782Z,23.83
2022-08-17T13:56:37.437Z,23.54
2022-08-17T13:59:06.771Z,23.05
2022-08-17T14:01:53.478Z,22.70
2022-08-17T14:04:28.291Z,22.51
2022-08-17T14:07:04.297Z,22.46
2022-08-17T14:09:37.550Z,22.41
2022-08-17T14:12:10.742Z,22.40
2022-08-17T14:14:39.017Z,22.34
2022-08-17T14:17:07.850Z,22.42
2022-08-17T14:19:36.173Z,22.39
2022-08-17T14:22:06.714Z,22.36
2022-08-17T14:24:44.024Z,22.31
2022-08-17T14:27:12.705Z,22.28
2022-08-17T14:29:41.447Z,22.29
2022-08-17T14:32:20.110Z,22.33
2022-08-17T14:34:49.721Z,22.34
2022-08-17T14:37:18.844Z,22.24
2022-08-17T14:39:46.635Z,22.06
2022-08-17T14:42:15.612Z,22.03
2022-08-17T14:44:43.305Z,21.96
2022-08-17T14:47:15.006Z,21.91
2022-08-17T14:49:43.817Z,21.91
2022-08-17T14:52:21.749Z,22.04
2022-08-17T14:54:53.831Z,22.14
2022-08-17T14:57:33.487Z,22.21
2022-08-17T15:00:02.401Z,22.29
2022-08-17T15:02:31.029Z,22.28
2022-08-17T15:05:05.220Z,22.19
2022-08-17T15:07:33.089Z,22.09
2022-08-17T15:10:02.008Z,22.03
2022-08-17T15:12:33.742Z,22.04
2022-08-17T15:15:06.973Z,21.98
2022-08-17T15:17:44.353Z,21.84
2022-08-17T15:20:16.526Z,21.65
2022-08-17T15:22:45.837Z,21.57
2022-08-17T15:25:14.426Z,21.50
2022-08-17T15:27:42.643Z,21.47
2022-08-17T15:30:11.800Z,21.51
2022-08-17T15:32:46.825Z,21.57
2022-08-17T15:35:27.054Z,21.55
2022-08-17T15:38:07.977Z,21.49
2022-08-17T15:40:40.265Z,21.39
2022-08-17T15:43:11.560Z,21.30
2022-08-17T15:45:40.185Z,21.30
2022-08-17T15:48:08.027Z,21.29
2022-08-17T15:50:35.990Z,21.26
2022-08-17T15:53:05.092Z,21.17
2022-08-17T15:55:33.521Z,21.10
2022-08-17T15:58:01.396Z,21.07
2022-08-17T16:00:30.089Z,21.01
2022-08-17T16:03:45.301Z,21.00
2022-08-17T16:05:50.269Z,21.00
2022-08-17T16:08:21.375Z,21.03
2022-08-17T16:10:50.274Z,21.02
2022-08-17T16:13:19.171Z,20.93
2022-08-17T16:15:56.774Z,20.88
2022-08-17T16:18:27.512Z,20.82
2022-08-17T16:20:57.328Z,20.81
2022-08-17T16:23:25.009Z,20.80
2022-08-17T16:25:54.248Z,20.71
2022-08-17T16:28:29.863Z,20.67
2022-08-17T16:31:07.977Z,20.60
2022-08-17T16:33:37.764Z,20.47
2022-08-17T16:36:09.644Z,20.36
2022-08-17T16:38:38.625Z,20.28
2022-08-17T16:41:06.831Z,20.26
2022-08-17T16:43:35.305Z,20.24
2022-08-17T16:46:02.869Z,20.23
2022-08-17T16:48:30.865Z,20.24
2022-08-17T16:51:03.596Z,20.21
2022-08-17T16:53:32.265Z,20.09
2022-08-17T16:55:59.958Z,19.98
2022-08-17T16:58:27.589Z,19.95
2022-08-17T17:00:59.735Z,19.98
2022-08-17T17:03:31.236Z,20.05
2022-08-17T17:06:14.379Z,20.10
2022-08-17T17:08:49.440Z,20.16
2022-08-17T17:11:30.225Z,20.20
2022-08-17T17:14:02.051Z,20.23
2022-08-17T17:16:29.737Z,20.18
2022-08-17T17:19:12.457Z,20.11
2022-08-17T17:21:59.520Z,20.02
2022-08-17T17:24:50.106Z,19.88
2022-08-17T17:27:23.546Z,19.79
2022-08-17T17:30:01.567Z,19.75
2022-08-17T17:32:39.291Z,19.74
2022-08-17T17:35:32.805Z,19.67
2022-08-17T17:38:14.093Z,19.59
2022-08-17T17:40:50.262Z,19.58
2022-08-17T17:43:38.386Z,19.60
2022-08-17T17:46:29.259Z,19.60
2022-08-17T17:48:57.944Z,19.60
2022-08-17T17:52:06.806Z,19.57
2022-08-17T17:54:39.126Z,19.51
2022-08-17T17:57:27.755Z,19.53
2022-08-17T18:00:17.047Z,19.55
2022-08-17T18:02:59.446Z,19.46
2022-08-17T18:05:34.060Z,19.37
2022-08-17T18:08:34.720Z,19.29
2022-08-17T18:11:35.098Z,19.25
2022-08-17T18:14:24.469Z,19.18
2022-08-17T18:16:58.719Z,19.10
2022-08-17T18:19:29.161Z,19.07
2022-08-17T18:22:19.389Z,19.02
2022-08-17T18:24:55.934Z,18.98
2022-08-17T18:27:23.729Z,18.92
2022-08-17T18:29:56.929Z,18.90
2022-08-17T18:32:41.488Z,18.87
2022-08-17T18:35:09.215Z,18.86
2022-08-17T18:37:53.555Z,18.84
2022-08-17T18:40:26.669Z,18.86
2022-08-17T18:43:53.810Z,18.85
2022-08-17T18:46:35.147Z,18.82
2022-08-17T18:49:20.573Z,18.79
2022-08-17T18:51:48.263Z,18.77
2022-08-17T18:54:24.696Z,18.75
2022-08-17T18:56:55.811Z,18.75
2022-08-17T18:59:27.077Z,18.71
2022-08-17T19:02:36.057Z,18.65
2022-08-17T19:05:09.463Z,18.63
2022-08-17T19:07:46.981Z,18.58
2022-08-17T19:10:31.975Z,18.58
2022-08-17T19:13:24.915Z,18.53
2022-08-17T19:16:21.070Z,18.49
2022-08-17T19:19:08.505Z,18.43
2022-08-17T19:21:42.285Z,18.35
2022-08-17T19:24:12.486Z,18.31
2022-08-17T19:26:54.051Z,18.22
2022-08-17T19:29:34.205Z,18.13
2022-08-17T19:32:02.391Z,18.05
2022-08-17T19:34:34.086Z,18.00
2022-08-17T19:37:29.385Z,17.89
2022-08-17T19:39:57.085Z,17.84
2022-08-17T19:42:49.861Z,17.81
2022-08-17T19:45:33.104Z,17.73
2022-08-17T19:48:12.460Z,17.71
2022-08-17T19:50:55.305Z,17.67
2022-08-17T19:54:07.709Z,17.61
2022-08-17T19:56:58.564Z,17.59
2022-08-17T19:59:49.562Z,17.57
2022-08-17T20:02:41.799Z,17.49
2022-08-17T20:05:19.977Z,17.42
2022-08-17T20:07:55.933Z,17.36
2022-08-17T20:10:34.389Z,17.32
2022-08-17T20:13:07.762Z,17.24
2022-08-17T20:15:40.133Z,17.15
2022-08-17T20:18:16.951Z,17.09
2022-08-17T20:20:58.482Z,17.04
2022-08-17T20:23:28.898Z,16.94
2022-08-17T20:26:10.222Z,16.87
2022-08-17T20:28:41.153Z,16.84
2022-08-17T20:31:46.076Z,16.84
2022-08-17T20:34:33.627Z,16.82
2022-08-17T20:37:10.830Z,16.83
2022-08-17T20:39:44.300Z,16.79
2022-08-17T20:42:30.499Z,16.74
2022-08-17T20:45:05.774Z,16.74
2022-08-17T20:48:15.149Z,16.70
2022-08-17T20:50:44.041Z,16.65
2022-08-17T20:53:32.375Z,16.63
2022-08-17T20:55:59.971Z,16.59
2022-08-17T20:58:31.172Z,16.58
2022-08-17T21:00:59.167Z,16.57
2022-08-17T21:03:47.929Z,16.57
2022-08-17T21:06:21.320Z,16.57
2022-08-17T21:09:15.074Z,16.53
2022-08-17T21:12:03.733Z,16.50
2022-08-17T21:14:41.741Z,16.49
2022-08-17T21:17:38.898Z,16.51
2022-08-17T21:20:14.632Z,16.50
2022-08-17T21:22:56.621Z,16.55
2022-08-17T21:25:49.881Z,16.53
2022-08-17T21:28:33.842Z,16.49
2022-08-17T21:31:09.021Z,16.52
2022-08-17T21:33:39.845Z,16.49
2022-08-17T21:36:11.608Z,16.45
2022-08-17T21:38:48.859Z,16.39
2022-08-17T21:41:30.980Z,16.38
2022-08-17T21:44:18.793Z,16.36
2022-08-17T21:46:49.533Z,16.34
2022-08-17T21:49:21.300Z,16.35
2022-08-17T21:51:54.860Z,16.34
2022-08-17T21:54:42.873Z,16.36
2022-08-17T21:57:21.037Z,16.33
2022-08-17T21:59:55.321Z,16.37
2022-08-17T22:02:31.129Z,16.39
2022-08-17T22:05:02.332Z,16.38
2022-08-17T22:07:48.662Z,16.36
2022-08-17T22:10:45.690Z,16.38
2022-08-17T22:13:16.810Z,16.36
2022-08-17T22:15:48.519Z,16.34
2022-08-17T22:18:28.893Z,16.25
2022-08-17T22:21:01.988Z,16.19
2022-08-17T22:23:54.117Z,16.15
2022-08-17T22:26:24.628Z,16.11
2022-08-17T22:28:56.610Z,16.10
2022-08-17T22:31:27.204Z,16.05
2022-08-17T22:33:57.849Z,16.03
2022-08-17T22:36:35.587Z,16.01
2022-08-17T22:39:09.543Z,16.00
2022-08-17T22:42:00.244Z,15.98
2022-08-17T22:44:32.080Z,15.98
2022-08-17T22:47:20.675Z,15.95
2022-08-17T22:50:00.280Z,15.89
2022-08-17T22:52:35.416Z,15.83
2022-08-17T22:55:30.845Z,15.81
2022-08-17T22:58:18.534Z,15.82
2022-08-17T23:00:48.956Z,15.79
2022-08-17T23:03:19.032Z,15.77
2022-08-17T23:06:08.657Z,15.74
2022-08-17T23:08:51.433Z,15.71
2022-08-17T23:11:19.309Z,15.66
2022-08-17T23:14:04.402Z,15.62
2022-08-17T23:16:32.900Z,15.59
2022-08-17T23:19:00.437Z,15.59
2022-08-17T23:21:31.418Z,15.58
2022-08-17T23:24:06.875Z,15.57
2022-08-17T23:26:39.444Z,15.59
2022-08-17T23:29:07.894Z,15.57
2022-08-17T23:31:37.341Z,15.57
2022-08-17T23:34:10.070Z,15.57
2022-08-17T23:36:38.526Z,15.54
2022-08-17T23:39:07.038Z,15.51
2022-08-17T23:41:38.685Z,15.49
2022-08-17T23:44:07.003Z,15.49
2022-08-17T23:46:34.755Z,15.50
2022-08-17T23:49:03.330Z,15.49
2022-08-17T23:51:35.767Z,15.50
2022-08-17T23:54:12.654Z,15.49
2022-08-17T23:56:45.623Z,15.49
2022-08-17T23:59:20.965Z,15.51
